createdAt,value
2023-02-25T00:01:39.297Z,6.17
2023-02-25T00:04:06.609Z,6.16
2023-02-25T00:06:33.868Z,6.16
2023-02-25T00:09:01.082Z,6.14
2023-02-25T00:11:28.425Z,6.10
2023-02-25T00:13:55.735Z,6.10
2023-02-25T00:16:24.388Z,5.99
2023-02-25T00:18:58.190Z,6.23
2023-02-25T00:21:27.097Z,6.21
2023-02-25T00:23:54.027Z,6.14
2023-02-25T00:26:22.391Z,6.11
2023-02-25T00:28:49.624Z,6.13
2023-02-25T00:31:20.349Z,6.06
2023-02-25T00:33:48.365Z,6.07
2023-02-25T00:36:21.971Z,6.09
2023-02-25T00:38:54.913Z,6.06
2023-02-25T00:41:26.783Z,6.09
2023-02-25T00:43:59.409Z,6.10
2023-02-25T00:46:27.582Z,6.12
2023-02-25T00:48:54.740Z,6.13
2023-02-25T00:51:25.220Z,5.98
2023-02-25T00:53:53.787Z,6.12
2023-02-25T00:56:20.968Z,6.16
2023-02-25T00:58:50.117Z,5.37
2023-02-25T01:01:29.287Z,6.09
2023-02-25T01:03:57.401Z,6.21
2023-02-25T01:06:26.700Z,6.24
2023-02-25T01:08:54.115Z,6.23
2023-02-25T01:11:27.734Z,6.32
2023-02-25T01:14:10.956Z,6.24
2023-02-25T01:16:38.151Z,6.31
2023-02-25T01:19:09.435Z,6.34
2023-02-25T01:21:39.385Z,6.25
2023-02-25T01:24:15.940Z,6.25
2023-02-25T01:26:45.339Z,6.15
2023-02-25T01:29:16.338Z,6.20
2023-02-25T01:31:45.199Z,6.30
2023-02-25T01:34:17.887Z,6.27
2023-02-25T01:36:45.488Z,6.19
2023-02-25T01:39:14.568Z,6.23
2023-02-25T01:41:41.952Z,6.12
2023-02-25T01:44:33.896Z,6.25
2023-02-25T01:47:04.385Z,6.25
2023-02-25T01:49:46.056Z,6.21
2023-02-25T01:52:18.755Z,6.27
2023-02-25T01:54:48.417Z,6.19
2023-02-25T01:57:17.781Z,6.27
2023-02-25T01:59:47.544Z,6.31
2023-02-25T02:02:20.708Z,6.10
2023-02-25T02:04:52.770Z,6.25
2023-02-25T02:07:21.878Z,6.28
2023-02-25T02:09:58.461Z,6.20
2023-02-25T02:12:38.732Z,6.15
2023-02-25T02:15:09.587Z,6.22
2023-02-25T02:17:48.655Z,6.24
2023-02-25T02:20:26.089Z,6.18
2023-02-25T02:23:03.812Z,6.21
2023-02-25T02:26:08.528Z,6.08
2023-02-25T02:29:14.500Z,6.21
2023-02-25T02:31:59.954Z,6.17
2023-02-25T02:34:48.340Z,6.16
2023-02-25T02:37:25.063Z,6.16
2023-02-25T02:40:00.880Z,6.13
2023-02-25T02:43:09.241Z,6.10
2023-02-25T02:45:47.196Z,6.13
2023-02-25T02:48:24.899Z,6.12
2023-02-25T02:50:57.565Z,5.94
2023-02-25T02:53:31.796Z,6.21
2023-02-25T02:56:03.144Z,6.13
2023-02-25T02:58:53.054Z,6.12
2023-02-25T03:01:27.425Z,5.11
2023-02-25T03:04:02.958Z,6.00
2023-02-25T03:06:43.938Z,6.01
2023-02-25T03:09:17.217Z,5.95
2023-02-25T03:11:44.641Z,5.85
2023-02-25T03:14:13.062Z,5.71
2023-02-25T03:16:51.337Z,5.82
2023-02-25T03:19:23.519Z,5.75
2023-02-25T03:22:08.236Z,5.71
2023-02-25T03:24:49.917Z,5.79
2023-02-25T03:27:34.350Z,5.74
2023-02-25T03:30:15.100Z,5.57
2023-02-25T03:32:48.024Z,5.67
2023-02-25T03:35:19.065Z,5.58
2023-02-25T03:37:51.012Z,5.58
2023-02-25T03:40:20.838Z,5.57
2023-02-25T03:43:21.420Z,5.58
2023-02-25T03:45:49.075Z,5.50
2023-02-25T03:48:17.587Z,5.49
2023-02-25T03:50:50.305Z,5.44
2023-02-25T03:53:17.497Z,5.39
2023-02-25T03:55:59.092Z,5.53
2023-02-25T03:58:26.061Z,5.50
2023-02-25T04:00:56.560Z,4.96
2023-02-25T04:03:25.123Z,5.46
2023-02-25T04:05:52.550Z,5.45
2023-02-25T04:08:19.688Z,5.46
2023-02-25T04:10:48.026Z,5.38
2023-02-25T04:13:20.491Z,4.91
2023-02-25T04:15:49.706Z,5.39
2023-02-25T04:18:17.258Z,5.34
2023-02-25T04:20:45.101Z,5.24
2023-02-25T04:23:15.092Z,5.29
2023-02-25T04:25:42.033Z,5.26
2023-02-25T04:28:10.133Z,4.57
2023-02-25T04:30:37.225Z,5.35
2023-02-25T04:33:04.349Z,5.17
2023-02-25T04:35:31.376Z,5.36
2023-02-25T04:37:58.515Z,5.22
2023-02-25T04:40:25.483Z,5.17
2023-02-25T04:42:52.692Z,5.20
2023-02-25T04:45:26.861Z,5.15
2023-02-25T04:47:58.124Z,5.24
2023-02-25T04:50:26.629Z,5.18
2023-02-25T04:52:53.608Z,4.93
2023-02-25T04:55:20.689Z,5.13
2023-02-25T04:57:47.562Z,5.04
2023-02-25T05:00:20.533Z,5.13
2023-02-25T05:02:48.178Z,5.04
2023-02-25T05:05:15.528Z,5.02
2023-02-25T05:07:42.784Z,5.09
2023-02-25T05:10:12.154Z,5.09
2023-02-25T05:12:39.597Z,4.91
2023-02-25T05:15:08.644Z,4.92
2023-02-25T05:17:36.197Z,4.92
2023-02-25T05:20:07.351Z,5.09
2023-02-25T05:22:34.947Z,5.04
2023-02-25T05:25:01.838Z,5.18
2023-02-25T05:27:30.262Z,5.20
2023-02-25T05:29:57.404Z,5.28
2023-02-25T05:32:24.714Z,5.29
2023-02-25T05:34:51.768Z,5.22
2023-02-25T05:37:19.030Z,5.35
2023-02-25T05:39:45.843Z,5.38
2023-02-25T05:42:12.785Z,5.49
2023-02-25T05:44:39.833Z,5.45
2023-02-25T05:47:07.828Z,5.46
2023-02-25T05:49:34.729Z,5.61
2023-02-25T05:52:01.659Z,5.67
2023-02-25T05:54:28.704Z,5.49
2023-02-25T05:56:55.697Z,5.62
2023-02-25T05:59:22.704Z,5.87
2023-02-25T06:01:49.548Z,5.76
2023-02-25T06:04:16.423Z,6.12
2023-02-25T06:06:43.502Z,6.23
2023-02-25T06:09:10.524Z,6.31
2023-02-25T06:11:37.611Z,6.37
2023-02-25T06:14:04.500Z,6.34
2023-02-25T06:16:32.354Z,6.59
2023-02-25T06:19:01.196Z,6.63
2023-02-25T06:21:28.315Z,6.70
2023-02-25T06:23:55.564Z,6.84
2023-02-25T06:26:23.443Z,6.82
2023-02-25T06:28:50.731Z,6.86
2023-02-25T06:31:19.798Z,7.10
2023-02-25T06:33:46.985Z,6.90
2023-02-25T06:36:14.267Z,7.16
2023-02-25T06:38:43.204Z,7.20
2023-02-25T06:41:15.719Z,7.22
2023-02-25T06:43:43.083Z,7.25
2023-02-25T06:46:13.675Z,7.33
2023-02-25T06:48:41.413Z,7.64
2023-02-25T06:51:09.697Z,7.87
2023-02-25T06:53:38.299Z,8.08
2023-02-25T06:56:06.584Z,8.29
2023-02-25T06:58:33.968Z,8.38
2023-02-25T07:01:00.897Z,8.48
2023-02-25T07:03:28.124Z,8.62
2023-02-25T07:05:55.061Z,8.63
2023-02-25T07:08:22.021Z,8.52
2023-02-25T07:10:49.094Z,8.89
2023-02-25T07:13:16.011Z,8.99
2023-02-25T07:15:43.033Z,8.75
2023-02-25T07:18:10.176Z,9.06
2023-02-25T07:20:39.354Z,9.30
2023-02-25T07:23:06.678Z,9.39
2023-02-25T07:25:33.612Z,9.38
2023-02-25T07:28:00.652Z,9.50
2023-02-25T07:30:27.640Z,9.67
2023-02-25T07:32:54.745Z,9.67
2023-02-25T07:35:21.632Z,9.55
2023-02-25T07:37:48.542Z,9.83
2023-02-25T07:40:17.011Z,10.05
2023-02-25T07:42:44.068Z,10.28
2023-02-25T07:45:12.752Z,10.33
2023-02-25T07:47:40.149Z,10.31
2023-02-25T07:50:12.298Z,10.13
2023-02-25T07:52:40.049Z,10.41
2023-02-25T07:55:07.376Z,10.49
2023-02-25T07:57:35.561Z,10.66
2023-02-25T08:00:07.036Z,10.72
2023-02-25T08:02:40.163Z,10.84
2023-02-25T08:05:07.780Z,10.95
2023-02-25T08:07:34.892Z,10.98
2023-02-25T08:10:02.059Z,10.97
2023-02-25T08:12:30.891Z,10.57
2023-02-25T08:15:01.942Z,10.41
2023-02-25T08:17:34.697Z,10.68
2023-02-25T08:20:01.759Z,10.58
2023-02-25T08:22:30.702Z,10.74
2023-02-25T08:24:57.737Z,10.76
2023-02-25T08:27:24.678Z,11.04
2023-02-25T08:29:51.635Z,11.04
2023-02-25T08:32:19.191Z,11.16
2023-02-25T08:34:48.676Z,10.98
2023-02-25T08:37:15.727Z,11.14
2023-02-25T08:39:42.920Z,11.16
2023-02-25T08:42:18.838Z,11.02
2023-02-25T08:44:45.891Z,11.07
2023-02-25T08:47:13.030Z,11.12
2023-02-25T08:49:40.278Z,11.02
2023-02-25T08:52:10.319Z,11.20
2023-02-25T08:54:41.342Z,11.13
2023-02-25T08:57:08.407Z,10.86
2023-02-25T08:59:38.238Z,11.05
2023-02-25T09:02:06.446Z,11.19
2023-02-25T09:04:34.553Z,11.35
2023-02-25T09:07:02.719Z,11.31
2023-02-25T09:09:29.844Z,10.98
2023-02-25T09:11:57.109Z,11.16
2023-02-25T09:14:24.385Z,11.10
2023-02-25T09:16:51.373Z,11.15
2023-02-25T09:19:18.672Z,11.28
2023-02-25T09:21:48.369Z,11.22
2023-02-25T09:24:16.740Z,11.19
2023-02-25T09:26:43.691Z,11.15
2023-02-25T09:29:10.827Z,11.19
2023-02-25T09:31:38.784Z,11.08
2023-02-25T09:34:08.888Z,10.87
2023-02-25T09:36:36.346Z,10.79
2023-02-25T09:39:04.725Z,10.86
2023-02-25T09:41:46.537Z,10.66
2023-02-25T09:44:19.614Z,10.69
2023-02-25T09:46:56.038Z,10.71
2023-02-25T09:49:49.225Z,10.91
2023-02-25T09:52:48.044Z,11.09
2023-02-25T09:55:23.872Z,11.02
2023-02-25T09:58:03.025Z,11.34
2023-02-25T10:00:34.156Z,11.43
2023-02-25T10:03:14.668Z,11.50
2023-02-25T10:06:01.854Z,11.68
2023-02-25T10:08:47.704Z,11.72
2023-02-25T10:11:36.753Z,11.78
2023-02-25T10:14:31.346Z,11.81
2023-02-25T10:17:22.944Z,11.84
2023-02-25T10:20:04.245Z,11.65
2023-02-25T10:22:59.148Z,11.64
2023-02-25T10:25:35.080Z,11.82
2023-02-25T10:28:17.550Z,11.98
2023-02-25T10:30:48.162Z,12.00
2023-02-25T10:33:24.671Z,12.06
2023-02-25T10:36:14.993Z,12.19
2023-02-25T10:38:47.953Z,12.27
2023-02-25T10:41:14.946Z,12.35
2023-02-25T10:43:43.280Z,12.41
2023-02-25T10:46:16.292Z,12.48
2023-02-25T10:48:50.663Z,12.39
2023-02-25T10:51:17.870Z,12.35
2023-02-25T10:54:05.123Z,12.39
2023-02-25T10:56:40.293Z,12.52
2023-02-25T10:59:30.043Z,12.59
2023-02-25T11:01:59.837Z,12.70
2023-02-25T11:04:37.612Z,12.68
2023-02-25T11:07:34.594Z,12.61
2023-02-25T11:10:09.577Z,12.73
2023-02-25T11:12:45.671Z,12.70
2023-02-25T11:15:38.147Z,12.85
2023-02-25T11:18:31.606Z,12.99
2023-02-25T11:21:02.337Z,13.08
2023-02-25T11:23:43.973Z,13.27
2023-02-25T11:26:17.476Z,13.42
2023-02-25T11:28:49.069Z,13.48
2023-02-25T11:31:25.866Z,13.47
2023-02-25T11:34:03.816Z,13.62
2023-02-25T11:36:33.909Z,13.70
2023-02-25T11:39:20.993Z,13.83
2023-02-25T11:41:50.796Z,14.01
2023-02-25T11:44:31.916Z,14.16
2023-02-25T11:47:25.553Z,14.30
2023-02-25T11:50:05.356Z,14.52
2023-02-25T11:52:32.352Z,14.69
2023-02-25T11:55:12.999Z,14.84
2023-02-25T11:58:25.378Z,14.96
2023-02-25T12:01:04.823Z,15.10
2023-02-25T12:03:52.416Z,14.93
2023-02-25T12:06:36.456Z,15.28
2023-02-25T12:09:26.877Z,15.34
2023-02-25T12:12:00.082Z,15.21
2023-02-25T12:14:50.879Z,15.10
2023-02-25T12:17:47.614Z,15.27
2023-02-25T12:20:43.352Z,15.37
2023-02-25T12:23:31.336Z,15.58
2023-02-25T12:25:58.331Z,15.69
2023-02-25T12:28:34.543Z,15.67
2023-02-25T12:31:26.324Z,15.80
2023-02-25T12:34:11.470Z,15.82
2023-02-25T12:37:12.339Z,16.07
2023-02-25T12:40:00.309Z,16.16
2023-02-25T12:42:27.202Z,16.24
2023-02-25T12:44:57.152Z,16.31
2023-02-25T12:47:33.262Z,16.46
2023-02-25T12:50:18.812Z,16.65
2023-02-25T12:53:00.879Z,16.61
2023-02-25T12:56:00.801Z,16.83
2023-02-25T12:58:49.386Z,16.78
2023-02-25T13:01:31.171Z,16.92
2023-02-25T13:03:58.260Z,16.93
2023-02-25T13:06:41.832Z,17.01
2023-02-25T13:09:30.543Z,17.07
2023-02-25T13:12:15.668Z,17.20
2023-02-25T13:15:20.651Z,17.12
2023-02-25T13:17:56.819Z,17.02
2023-02-25T13:20:36.274Z,17.03
2023-02-25T13:23:12.319Z,16.95
2023-02-25T13:26:00.389Z,16.96
2023-02-25T13:28:50.192Z,16.91
2023-02-25T13:31:29.309Z,16.82
2023-02-25T13:34:05.066Z,16.77
2023-02-25T13:36:47.937Z,16.67
2023-02-25T13:39:18.031Z,16.59
2023-02-25T13:42:23.975Z,16.65
2023-02-25T13:45:20.791Z,16.59
2023-02-25T13:48:30.232Z,16.57
2023-02-25T13:51:16.951Z,16.53
2023-02-25T13:54:14.683Z,16.42
2023-02-25T13:57:18.784Z,16.45
2023-02-25T14:00:20.380Z,16.37
2023-02-25T14:03:06.402Z,16.26
2023-02-25T14:05:36.375Z,16.23
2023-02-25T14:08:21.539Z,16.23
2023-02-25T14:11:15.717Z,16.22
2023-02-25T14:13:57.140Z,16.15
2023-02-25T14:16:36.434Z,16.11
2023-02-25T14:19:30.639Z,16.14
2023-02-25T14:22:09.910Z,16.04
2023-02-25T14:24:57.513Z,16.14
2023-02-25T14:27:58.487Z,16.21
2023-02-25T14:30:53.032Z,16.30
2023-02-25T14:33:34.422Z,16.38
2023-02-25T14:36:16.586Z,16.37
2023-02-25T14:39:05.786Z,16.44
2023-02-25T14:41:48.017Z,16.44
2023-02-25T14:44:20.148Z,16.31
2023-02-25T14:47:12.229Z,16.19
2023-02-25T14:50:09.517Z,16.15
2023-02-25T14:53:02.397Z,16.10
2023-02-25T14:55:51.096Z,16.14
2023-02-25T14:59:02.831Z,16.09
2023-02-25T15:01:45.214Z,16.10
2023-02-25T15:04:38.843Z,16.10
2023-02-25T15:07:21.497Z,16.02
2023-02-25T15:10:24.417Z,15.99
2023-02-25T15:13:30.036Z,15.85
2023-02-25T15:16:32.748Z,15.87
2023-02-25T15:19:19.748Z,15.79
2023-02-25T15:21:49.222Z,15.69
2023-02-25T15:24:28.019Z,15.67
2023-02-25T15:26:56.500Z,15.54
2023-02-25T15:29:29.742Z,15.55
2023-02-25T15:32:21.150Z,15.43
2023-02-25T15:34:57.442Z,15.45
2023-02-25T15:37:27.872Z,15.50
2023-02-25T15:40:25.574Z,15.45
2023-02-25T15:42:57.193Z,15.41
2023-02-25T15:45:27.777Z,15.41
2023-02-25T15:48:21.052Z,15.46
2023-02-25T15:50:48.066Z,15.41
2023-02-25T15:53:24.808Z,15.38
2023-02-25T15:56:12.620Z,15.21
2023-02-25T15:58:55.092Z,15.30
2023-02-25T16:01:27.303Z,15.28
2023-02-25T16:03:55.103Z,15.18
2023-02-25T16:06:40.802Z,15.23
2023-02-25T16:09:12.477Z,15.15
2023-02-25T16:11:43.566Z,15.19
2023-02-25T16:14:25.206Z,15.11
2023-02-25T16:17:15.259Z,15.06
2023-02-25T16:19:43.710Z,15.01
2023-02-25T16:22:21.429Z,15.16
2023-02-25T16:24:54.718Z,15.17
2023-02-25T16:27:49.322Z,15.15
2023-02-25T16:30:22.869Z,15.09
2023-02-25T16:32:58.872Z,15.13
2023-02-25T16:35:28.763Z,15.09
2023-02-25T16:41:12.893Z,15.09
2023-02-25T16:43:45.772Z,15.15
2023-02-25T16:46:21.733Z,15.16
2023-02-25T16:48:54.773Z,15.18
2023-02-25T16:51:33.913Z,15.13
2023-02-25T16:54:06.667Z,15.01
2023-02-25T16:56:34.349Z,15.07
2023-02-25T16:59:14.887Z,15.07
2023-02-25T17:02:06.024Z,14.98
2023-02-25T17:04:36.178Z,15.03
2023-02-25T17:07:17.986Z,14.87
2023-02-25T17:10:02.291Z,15.07
2023-02-25T17:12:35.776Z,15.10
2023-02-25T17:15:09.599Z,15.08
2023-02-25T17:17:39.952Z,15.12
2023-02-25T17:20:23.414Z,15.15
2023-02-25T17:22:51.936Z,15.13
2023-02-25T17:25:20.652Z,15.10
2023-02-25T17:27:50.300Z,14.99
2023-02-25T17:30:34.445Z,15.02
2023-02-25T17:33:18.451Z,15.00
2023-02-25T17:35:48.151Z,14.77
2023-02-25T17:38:19.848Z,15.06
2023-02-25T17:40:47.751Z,15.03
2023-02-25T17:43:16.023Z,15.09
2023-02-25T17:45:50.277Z,15.04
2023-02-25T17:48:21.596Z,15.17
2023-02-25T17:51:11.042Z,15.08
2023-02-25T17:53:43.930Z,15.15
2023-02-25T17:56:30.463Z,15.04
2023-02-25T17:59:28.493Z,14.64
2023-02-25T18:02:00.851Z,14.94
2023-02-25T18:04:38.200Z,14.92
2023-02-25T18:07:20.525Z,14.91
2023-02-25T18:09:48.123Z,14.89
2023-02-25T18:12:27.933Z,14.82
2023-02-25T18:14:58.527Z,14.84
2023-02-25T18:17:30.630Z,14.74
2023-02-25T18:20:00.838Z,14.78
2023-02-25T18:22:30.728Z,14.67
2023-02-25T18:25:01.186Z,14.75
2023-02-25T18:27:32.440Z,14.71
2023-02-25T18:30:20.478Z,14.75
2023-02-25T18:32:48.018Z,14.66
2023-02-25T18:35:15.384Z,14.71
2023-02-25T18:37:44.620Z,14.64
2023-02-25T18:40:30.787Z,14.72
2023-02-25T18:42:58.999Z,14.67
2023-02-25T18:45:28.737Z,14.67
2023-02-25T18:47:56.978Z,14.57
2023-02-25T18:50:24.636Z,14.61
2023-02-25T18:52:51.580Z,14.51
2023-02-25T18:55:22.115Z,14.46
2023-02-25T18:57:49.575Z,14.57
2023-02-25T19:00:18.575Z,14.54
2023-02-25T19:02:56.739Z,14.57
2023-02-25T19:05:25.810Z,14.64
2023-02-25T19:07:52.912Z,14.65
2023-02-25T19:10:26.045Z,14.65
2023-02-25T19:13:00.683Z,14.70
2023-02-25T19:15:27.824Z,14.52
2023-02-25T19:17:54.886Z,14.69
2023-02-25T19:20:22.914Z,14.58
2023-02-25T19:22:52.514Z,14.62
2023-02-25T19:25:29.421Z,14.66
2023-02-25T19:27:57.649Z,14.59
2023-02-25T19:30:30.787Z,14.69
2023-02-25T19:33:04.256Z,14.58
2023-02-25T19:35:34.724Z,14.61
2023-02-25T19:38:02.823Z,14.63
2023-02-25T19:40:29.979Z,14.61
2023-02-25T19:42:57.570Z,14.67
2023-02-25T19:45:26.586Z,14.60
2023-02-25T19:47:54.776Z,14.54
2023-02-25T19:50:24.814Z,14.63
2023-02-25T19:52:53.361Z,14.50
2023-02-25T19:55:20.510Z,14.57
2023-02-25T19:57:47.663Z,14.70
2023-02-25T20:00:19.025Z,14.73
2023-02-25T20:02:46.296Z,14.71
2023-02-25T20:05:14.622Z,14.67
2023-02-25T20:07:42.543Z,14.72
2023-02-25T20:10:11.046Z,14.72
2023-02-25T20:12:41.580Z,14.61
2023-02-25T20:15:09.643Z,14.72
2023-02-25T20:17:37.525Z,14.71
2023-02-25T20:20:06.790Z,14.69
2023-02-25T20:22:33.731Z,14.72
2023-02-25T20:25:01.223Z,14.75
2023-02-25T20:27:28.215Z,14.67
2023-02-25T20:29:55.453Z,14.61
2023-02-25T20:32:22.339Z,14.65
2023-02-25T20:34:49.541Z,14.59
2023-02-25T20:37:22.685Z,14.63
2023-02-25T20:39:55.690Z,14.64
2023-02-25T20:42:27.565Z,14.60
2023-02-25T20:44:55.126Z,14.41
2023-02-25T20:47:37.225Z,14.63
2023-02-25T20:50:06.955Z,14.44
2023-02-25T20:52:34.246Z,14.57
2023-02-25T20:55:01.256Z,14.55
2023-02-25T20:57:28.760Z,14.56
2023-02-25T20:59:55.717Z,14.58
2023-02-25T21:02:23.073Z,14.43
2023-02-25T21:04:51.480Z,14.49
2023-02-25T21:07:18.562Z,14.47
2023-02-25T21:09:45.678Z,14.48
2023-02-25T21:12:12.582Z,14.18
2023-02-25T21:14:40.795Z,14.44
2023-02-25T21:17:09.695Z,14.45
2023-02-25T21:19:38.690Z,14.51
2023-02-25T21:22:06.875Z,14.44
2023-02-25T21:24:34.624Z,14.44
2023-02-25T21:27:01.915Z,14.42
2023-02-25T21:29:29.060Z,14.48
2023-02-25T21:31:56.744Z,14.56
2023-02-25T21:34:23.773Z,14.54
2023-02-25T21:36:50.604Z,14.41
2023-02-25T21:39:18.048Z,14.36
2023-02-25T21:41:45.147Z,14.23
2023-02-25T21:44:12.921Z,14.32
2023-02-25T21:46:40.410Z,14.31
2023-02-25T21:49:07.464Z,14.32
2023-02-25T21:51:34.332Z,14.24
2023-02-25T21:54:01.840Z,14.36
2023-02-25T21:56:30.668Z,14.29
2023-02-25T21:58:59.705Z,14.34
2023-02-25T22:01:30.423Z,14.37
2023-02-25T22:03:57.780Z,14.39
2023-02-25T22:06:26.476Z,14.41
2023-02-25T22:08:54.164Z,14.42
2023-02-25T22:11:28.510Z,14.36
2023-02-25T22:13:55.923Z,14.45
2023-02-25T22:16:23.857Z,14.46
2023-02-25T22:18:52.355Z,14.46
2023-02-25T22:21:22.465Z,14.49
2023-02-25T22:23:51.172Z,14.57
2023-02-25T22:26:20.431Z,14.49
2023-02-25T22:28:47.374Z,14.23
2023-02-25T22:31:17.362Z,14.47
2023-02-25T22:33:45.619Z,14.45
2023-02-25T22:36:13.807Z,14.43
2023-02-25T22:38:42.707Z,14.39
2023-02-25T22:41:18.867Z,14.37
2023-02-25T22:43:46.158Z,14.31
2023-02-25T22:46:25.769Z,14.44
2023-02-25T22:48:53.548Z,14.39
2023-02-25T22:51:40.523Z,14.45
2023-02-25T22:54:08.390Z,14.47
2023-02-25T22:56:35.408Z,14.42
2023-02-25T22:59:02.316Z,14.45
2023-02-25T23:01:29.456Z,14.58
2023-02-25T23:03:56.929Z,14.68
2023-02-25T23:06:40.763Z,14.60
2023-02-25T23:09:10.064Z,14.73
2023-02-25T23:11:39.027Z,14.68
2023-02-25T23:14:05.957Z,14.66
2023-02-25T23:16:40.497Z,14.70
2023-02-25T23:19:10.517Z,14.71
2023-02-25T23:21:41.334Z,14.54
2023-02-25T23:24:09.453Z,14.65
2023-02-25T23:26:41.431Z,14.76
2023-02-25T23:29:10.962Z,14.07
2023-02-25T23:31:38.819Z,14.72
2023-02-25T23:34:11.262Z,14.67
2023-02-25T23:36:40.330Z,14.68
2023-02-25T23:39:09.259Z,14.54
2023-02-25T23:41:37.184Z,14.49
2023-02-25T23:44:05.635Z,14.45
2023-02-25T23:46:32.819Z,14.36
2023-02-25T23:49:02.089Z,14.44
2023-02-25T23:51:29.669Z,14.45
2023-02-25T23:53:59.230Z,14.33
2023-02-25T23:56:27.366Z,14.23
2023-02-25T23:58:55.437Z,14.25
